Time;durP1;ratioP1;P1;durP2;ratioP2;P2;SDS_P1;SDS_P2;PMS_P1;PMS_P2;Temp;Humidity;BMP_temperature;BMP_pressure;BME280_temperature;BME280_humidity;BME280_pressure;Samples;Min_cycle;Max_cycle;Signal;HPM_P1;HPM_P2
2022/06/03 00:02:19;;;;;;;3.05;1.10;;;12.70;96.20;;;;;;5006252;28;20117;-42
2022/06/03 00:05:26;;;;;;;2.55;1.00;;;12.70;96.20;;;;;;5005957;28;20052;-44
2022/06/03 00:08:14;;;;;;;3.47;1.20;;;12.70;96.60;;;;;;5005109;28;20054;-46
2022/06/03 00:11:05;;;;;;;6.10;1.25;;;12.60;97.30;;;;;;5007410;28;20518;-42
2022/06/03 00:14:25;;;;;;;3.97;1.67;;;12.60;97.00;;;;;;5007489;28;20049;-47
2022/06/03 00:17:01;;;;;;;3.20;1.13;;;12.50;97.10;;;;;;4929530;29;20586;-45
2022/06/03 00:19:42;;;;;;;2.17;1.05;;;12.50;97.10;;;;;;4994753;28;20121;-42
2022/06/03 00:22:33;;;;;;;2.45;1.00;;;12.40;97.00;;;;;;5009449;28;20045;-42
2022/06/03 00:25:29;;;;;;;2.35;1.30;;;12.40;97.70;;;;;;5009453;28;20565;-48
2022/06/03 00:28:17;;;;;;;2.22;1.38;;;12.40;97.90;;;;;;4999596;28;20041;-47
2022/06/03 00:31:27;;;;;;;3.00;1.83;;;12.30;97.80;;;;;;4998584;28;20066;-43
2022/06/03 00:33:58;;;;;;;3.05;1.35;;;12.30;98.50;;;;;;5001668;28;20034;-45
2022/06/03 00:36:45;;;;;;;3.30;1.17;;;12.30;98.10;;;;;;5005614;28;20458;-42
2022/06/03 00:39:33;;;;;;;2.53;1.00;;;12.20;98.50;;;;;;5006612;28;20438;-45
2022/06/03 00:42:03;;;;;;;2.03;1.25;;;12.20;98.60;;;;;;5008837;28;20398;-44
2022/06/03 00:44:59;;;;;;;2.10;1.00;;;12.20;98.30;;;;;;5007140;28;20479;-43
2022/06/03 00:47:34;;;;;;;2.72;1.20;;;12.20;98.90;;;;;;5002060;28;20124;-44
2022/06/03 00:50:26;;;;;;;3.53;1.20;;;12.10;98.80;;;;;;5002899;28;20533;-42
2022/06/03 00:53:13;;;;;;;6.35;1.55;;;12.10;98.70;;;;;;4999668;28;20098;-42
2022/06/03 00:55:51;;;;;;;2.60;1.27;;;12.10;98.90;;;;;;5006584;28;20457;-43
2022/06/03 00:58:30;;;;;;;2.65;1.15;;;12.00;98.80;;;;;;5008008;28;20053;-44
2022/06/03 01:01:14;;;;;;;2.55;1.45;;;12.00;98.90;;;;;;4997852;28;20034;-43
2022/06/03 01:03:42;;;;;;;4.57;1.30;;;11.90;99.30;;;;;;5004912;28;20513;-46
2022/06/03 01:06:42;;;;;;;4.65;1.17;;;12.00;99.50;;;;;;5008997;28;20120;-42
2022/06/03 01:09:55;;;;;;;4.47;1.67;;;11.90;99.90;;;;;;4998348;28;20062;-45
2022/06/03 01:12:36;;;;;;;3.63;1.52;;;11.90;99.90;;;;;;4942483;29;20505;-46
2022/06/03 01:15:12;;;;;;;3.45;1.50;;;11.80;99.90;;;;;;4936338;29;20059;-46
2022/06/03 01:18:01;;;;;;;3.88;1.13;;;11.80;99.90;;;;;;4986009;28;20050;-44
2022/06/03 01:20:37;;;;;;;2.75;1.42;;;11.80;99.90;;;;;;5006337;28;20073;-43
2022/06/03 01:23:21;;;;;;;5.45;1.40;;;11.80;99.90;;;;;;5007117;28;20038;-47
2022/06/03 01:26:06;;;;;;;2.42;1.48;;;11.80;99.90;;;;;;5006924;28;20045;-47
2022/06/03 01:29:10;;;;;;;4.10;1.60;;;11.70;99.90;;;;;;5005364;28;20042;-45
2022/06/03 01:32:10;;;;;;;5.38;1.35;;;11.70;99.90;;;;;;4996091;28;20522;-43
2022/06/03 01:34:56;;;;;;;3.78;1.60;;;11.60;99.90;;;;;;5003446;28;20120;-42
2022/06/03 01:37:25;;;;;;;3.38;1.50;;;11.60;99.90;;;;;;5006411;28;20120;-48
2022/06/03 01:40:11;;;;;;;2.30;1.35;;;11.60;99.90;;;;;;5003090;28;20467;-45
2022/06/03 01:43:09;;;;;;;2.83;1.42;;;11.60;99.90;;;;;;5005238;28;20157;-43
2022/06/03 01:45:34;;;;;;;2.80;1.40;;;11.60;99.90;;;;;;5005830;28;20423;-43
2022/06/03 01:48:39;;;;;;;2.28;1.25;;;11.50;99.90;;;;;;5003750;28;20324;-46
2022/06/03 01:51:50;;;;;;;3.40;1.42;;;11.50;99.90;;;;;;4991182;28;20046;-45
2022/06/03 01:55:00;;;;;;;2.92;1.48;;;11.50;99.90;;;;;;4977754;28;20053;-44
2022/06/03 01:57:44;;;;;;;1.98;1.05;;;11.50;99.90;;;;;;5000986;28;20049;-44
2022/06/03 02:00:16;;;;;;;2.90;1.42;;;11.50;99.90;;;;;;5008571;28;20554;-48
2022/06/03 02:03:18;;;;;;;6.28;1.52;;;11.50;99.90;;;;;;4996783;28;20499;-42
2022/06/03 02:06:03;;;;;;;3.65;1.58;;;11.40;99.90;;;;;;5004002;28;20046;-42
2022/06/03 02:08:47;;;;;;;3.92;1.52;;;11.40;99.90;;;;;;5004167;28;20038;-46
2022/06/03 02:11:32;;;;;;;2.95;1.50;;;11.40;99.90;;;;;;5004080;28;20053;-44
2022/06/03 02:13:57;;;;;;;4.40;1.67;;;11.40;99.90;;;;;;5009801;28;20060;-44
2022/06/03 02:16:31;;;;;;;3.65;1.58;;;11.40;99.90;;;;;;5010295;28;20046;-44
2022/06/03 02:19:12;;;;;;;4.43;1.70;;;11.40;99.90;;;;;;5012487;28;20037;-44
2022/06/03 02:22:07;;;;;;;4.35;1.58;;;11.40;99.90;;;;;;5008259;28;20045;-47
2022/06/03 02:25:00;;;;;;;3.25;1.45;;;11.40;99.90;;;;;;5011402;28;20045;-43
2022/06/03 02:27:43;;;;;;;5.43;1.85;;;11.30;99.90;;;;;;5005371;28;20096;-44
2022/06/03 02:30:25;;;;;;;;;;;11.30;99.90;;;;;;5010668;28;20463;-47
2022/06/03 02:33:22;;;;;;;4.80;1.90;;;11.20;99.90;;;;;;5009343;28;19983;-42
2022/06/03 02:35:49;;;;;;;3.90;1.90;;;11.20;99.90;;;;;;5003636;28;20092;-43
2022/06/03 02:38:40;;;;;;;4.55;1.70;;;11.10;99.90;;;;;;5011113;28;20117;-44
2022/06/03 02:41:18;;;;;;;4.00;2.17;;;11.10;99.90;;;;;;5007323;28;20123;-43
2022/06/03 02:43:47;;;;;;;5.20;2.10;;;11.10;99.90;;;;;;5010496;28;20376;-44
2022/06/03 02:46:41;;;;;;;4.03;1.80;;;11.00;99.90;;;;;;5006358;28;20041;-42
2022/06/03 02:49:22;;;;;;;6.00;2.25;;;11.00;99.90;;;;;;5010774;28;20045;-43
2022/06/03 02:52:03;;;;;;;5.05;2.10;;;11.00;99.90;;;;;;5007463;28;20050;-42
2022/06/03 02:54:39;;;;;;;4.53;2.20;;;11.00;99.90;;;;;;5011161;28;20041;-44
2022/06/03 02:58:03;;;;;;;4.35;2.30;;;11.00;99.90;;;;;;5006957;28;20536;-46
2022/06/03 03:00:42;;;;;;;4.28;2.10;;;11.00;99.90;;;;;;4929339;29;20126;-43
2022/06/03 03:03:14;;;;;;;5.47;2.40;;;10.90;99.90;;;;;;4933041;29;20043;-43
2022/06/03 03:06:17;;;;;;;5.18;2.22;;;10.90;99.90;;;;;;4978726;28;20054;-45
2022/06/03 03:09:05;;;;;;;4.82;2.17;;;10.90;99.90;;;;;;5005326;28;20038;-44
2022/06/03 03:12:09;;;;;;;4.32;2.08;;;10.80;99.90;;;;;;5004899;28;20049;-45
2022/06/03 03:14:50;;;;;;;;;;;10.80;99.90;;;;;;5000648;28;20061;-43
2022/06/03 03:17:42;;;;;;;4.57;2.05;;;10.80;99.90;;;;;;5004333;28;20445;-42
2022/06/03 03:20:35;;;;;;;4.80;2.25;;;10.80;99.90;;;;;;5022202;28;20037;-43
2022/06/03 03:23:05;;;;;;;3.95;2.17;;;10.70;99.90;;;;;;5006936;28;20038;-46
2022/06/03 03:25:39;;;;;;;6.68;2.83;;;10.70;99.90;;;;;;5008345;28;20038;-43
2022/06/03 03:28:29;;;;;;;3.95;2.10;;;10.70;99.90;;;;;;5006186;28;20045;-43
2022/06/03 03:31:15;;;;;;;5.22;2.00;;;10.70;99.90;;;;;;4999112;28;21551;-42
2022/06/03 03:34:15;;;;;;;4.18;2.50;;;10.70;99.90;;;;;;5005261;28;20188;-45
2022/06/03 03:36:58;;;;;;;4.22;2.30;;;10.70;99.90;;;;;;5002524;28;20181;-42
2022/06/03 03:39:46;;;;;;;5.18;2.58;;;10.70;99.90;;;;;;5007773;28;20491;-45
2022/06/03 03:42:15;;;;;;;5.30;2.50;;;10.70;99.90;;;;;;5023468;28;20518;-42
2022/06/03 03:44:47;;;;;;;5.35;2.50;;;10.70;99.90;;;;;;5011177;28;20082;-43
2022/06/03 03:47:35;;;;;;;5.07;2.47;;;10.70;99.90;;;;;;5004963;28;20750;-44
2022/06/03 03:50:16;;;;;;;4.13;2.40;;;10.70;99.90;;;;;;5010547;28;20056;-43
2022/06/03 03:52:50;;;;;;;7.32;2.35;;;10.70;99.90;;;;;;5006033;28;20088;-42
2022/06/03 03:55:44;;;;;;;5.32;2.40;;;10.70;99.90;;;;;;5008730;28;20084;-44
2022/06/03 03:58:39;;;;;;;6.45;2.70;;;10.70;99.90;;;;;;5009204;28;20581;-43
2022/06/03 04:01:29;;;;;;;6.20;2.70;;;10.80;99.90;;;;;;5002178;28;20062;-44
2022/06/03 04:04:01;;;;;;;5.18;2.78;;;10.70;99.90;;;;;;5009455;28;20042;-47
2022/06/03 04:07:04;;;;;;;5.78;2.80;;;10.80;99.90;;;;;;5009859;28;20507;-46
2022/06/03 04:09:46;;;;;;;7.45;2.10;;;10.80;99.90;;;;;;5010007;28;20495;-44
2022/06/03 04:12:12;;;;;;;5.53;2.10;;;10.80;99.90;;;;;;5005688;28;20061;-45
2022/06/03 04:14:56;;;;;;;4.95;2.70;;;10.90;99.90;;;;;;5009057;28;20057;-47
2022/06/03 04:18:12;;;;;;;4.97;2.28;;;10.90;99.90;;;;;;5008602;28;20130;-44
2022/06/03 04:21:07;;;;;;;7.00;2.78;;;11.00;99.90;;;;;;4973671;28;20129;-44
2022/06/03 04:23:52;;;;;;;6.90;2.88;;;11.00;99.90;;;;;;5001467;28;20034;-42
2022/06/03 04:26:43;;;;;;;5.05;2.85;;;11.10;99.90;;;;;;5006550;28;20048;-44
2022/06/03 04:29:36;;;;;;;5.45;3.40;;;11.20;99.90;;;;;;5005348;28;20046;-47
2022/06/03 04:32:22;;;;;;;5.60;2.63;;;11.20;99.90;;;;;;5005096;28;20084;-42
2022/06/03 04:35:26;;;;;;;5.95;2.67;;;11.30;99.90;;;;;;5005018;28;20057;-42
2022/06/03 04:38:34;;;;;;;5.40;3.00;;;11.40;99.90;;;;;;5009762;28;20236;-46
2022/06/03 04:41:21;;;;;;;6.47;2.88;;;11.50;99.90;;;;;;5007732;28;20525;-48
2022/06/03 04:44:24;;;;;;;6.20;2.67;;;11.50;99.90;;;;;;5003647;28;20468;-43
2022/06/03 04:46:50;;;;;;;7.25;2.72;;;11.70;99.90;;;;;;4942838;29;20044;-45
2022/06/03 04:49:24;;;;;;;4.20;2.30;;;11.80;99.90;;;;;;4995408;28;20046;-44
2022/06/03 04:52:21;;;;;;;4.80;2.58;;;11.90;99.90;;;;;;5007004;28;20490;-42
2022/06/03 04:54:50;;;;;;;5.30;2.72;;;12.10;99.90;;;;;;4997720;28;20041;-43
2022/06/03 04:57:37;;;;;;;6.20;2.70;;;12.10;99.90;;;;;;5003574;28;20065;-41
2022/06/03 05:00:17;;;;;;;4.97;2.78;;;12.20;99.90;;;;;;5007428;28;20042;-44
2022/06/03 05:03:20;;;;;;;4.85;2.50;;;12.40;99.90;;;;;;5006909;28;20490;-42
2022/06/03 05:06:01;;;;;;;3.42;2.08;;;12.50;99.90;;;;;;5005208;28;20050;-40
2022/06/03 05:09:04;;;;;;;4.95;2.42;;;12.60;99.80;;;;;;5007233;28;20117;-44
2022/06/03 05:12:08;;;;;;;5.97;2.47;;;12.70;99.70;;;;;;4995168;28;20038;-45
2022/06/03 05:14:56;;;;;;;5.22;2.30;;;12.80;99.00;;;;;;4999255;28;20433;-41
2022/06/03 05:17:57;;;;;;;4.13;2.47;;;12.80;98.70;;;;;;5011430;28;20073;-44
2022/06/03 05:20:58;;;;;;;4.28;2.30;;;12.90;98.20;;;;;;4981198;28;20064;-43
2022/06/03 05:23:48;;;;;;;3.85;1.85;;;12.90;98.20;;;;;;4998620;28;20074;-47
2022/06/03 05:26:26;;;;;;;5.18;2.17;;;12.90;98.00;;;;;;5008060;28;20263;-43
2022/06/03 05:29:03;;;;;;;4.32;2.00;;;12.90;98.00;;;;;;5000849;28;20050;-45
2022/06/03 05:31:59;;;;;;;5.07;2.00;;;13.00;97.90;;;;;;5006680;28;20050;-46
2022/06/03 05:34:34;;;;;;;4.45;2.03;;;13.00;97.90;;;;;;5010039;28;20125;-43
2022/06/03 05:37:37;;;;;;;4.70;1.98;;;13.10;97.70;;;;;;5002792;28;20449;-48
2022/06/03 05:40:13;;;;;;;5.75;2.13;;;13.10;97.40;;;;;;4992261;28;20468;-44
2022/06/03 05:43:18;;;;;;;4.82;2.03;;;13.20;97.20;;;;;;4995090;28;20046;-45
2022/06/03 05:46:00;;;;;;;4.47;2.00;;;13.30;96.90;;;;;;5008110;28;20103;-50
2022/06/03 05:49:03;;;;;;;5.80;1.95;;;13.30;96.60;;;;;;5002119;28;20049;-41
2022/06/03 05:51:53;;;;;;;4.05;2.38;;;13.40;96.30;;;;;;5013248;28;20466;-43
2022/06/03 05:54:41;;;;;;;4.10;1.95;;;13.50;95.90;;;;;;5013535;28;20038;-43
2022/06/03 05:57:25;;;;;;;2.78;1.35;;;13.60;95.90;;;;;;5007591;28;20054;-45
2022/06/03 06:00:04;;;;;;;4.50;1.60;;;13.60;95.80;;;;;;5008773;28;20042;-44
2022/06/03 06:02:38;;;;;;;4.57;1.67;;;13.70;95.60;;;;;;5010044;28;20180;-46
2022/06/03 06:05:10;;;;;;;3.10;1.63;;;13.80;95.30;;;;;;5013434;28;20045;-46
2022/06/03 06:07:42;;;;;;;5.50;1.60;;;13.80;95.10;;;;;;5012361;28;20046;-43
2022/06/03 06:10:23;;;;;;;4.95;1.92;;;13.90;95.00;;;;;;5006614;28;20510;-43
2022/06/03 06:13:13;;;;;;;4.07;1.65;;;14.00;94.80;;;;;;5004884;28;20058;-46
2022/06/03 06:16:19;;;;;;;4.65;2.00;;;14.10;94.90;;;;;;5005683;28;20345;-42
2022/06/03 06:19:01;;;;;;;2.85;1.80;;;14.30;94.50;;;;;;5008126;28;20136;-43
2022/06/03 06:21:36;;;;;;;2.92;1.65;;;14.30;94.20;;;;;;5006732;28;20092;-42
2022/06/03 06:24:20;;;;;;;3.78;1.73;;;14.40;94.10;;;;;;5013149;28;20116;-42
2022/06/03 06:27:17;;;;;;;3.80;1.67;;;14.40;94.10;;;;;;5000368;28;20042;-41
2022/06/03 06:30:02;;;;;;;5.20;1.40;;;14.50;94.10;;;;;;5009666;28;20046;-43
2022/06/03 06:32:33;;;;;;;3.10;1.30;;;14.70;93.90;;;;;;5004938;28;20042;-43
2022/06/03 06:35:24;;;;;;;4.40;1.67;;;14.80;93.70;;;;;;5010123;28;20060;-44
2022/06/03 06:38:04;;;;;;;2.80;1.60;;;14.90;93.50;;;;;;5009219;28;20490;-42
2022/06/03 06:40:59;;;;;;;4.93;1.65;;;15.00;93.60;;;;;;5008806;28;20255;-41
2022/06/03 06:43:46;;;;;;;4.72;1.50;;;15.10;93.50;;;;;;4990400;28;20440;-45
2022/06/03 06:46:33;;;;;;;5.10;1.50;;;15.20;92.90;;;;;;5003866;28;20145;-41
2022/06/03 06:49:02;;;;;;;4.00;1.50;;;15.30;93.00;;;;;;5004951;28;20125;-43
2022/06/03 06:51:36;;;;;;;4.50;1.52;;;15.40;92.80;;;;;;5011384;28;20037;-43
2022/06/03 06:54:10;;;;;;;6.32;1.60;;;15.50;92.80;;;;;;5009935;28;20561;-42
2022/06/03 06:56:48;;;;;;;3.75;1.52;;;15.60;92.40;;;;;;5008453;28;20057;-43
2022/06/03 06:59:32;;;;;;;3.60;1.55;;;15.70;92.00;;;;;;5010858;28;20474;-44
2022/06/03 07:02:18;;;;;;;3.28;1.58;;;15.80;91.60;;;;;;5002177;28;20046;-43
2022/06/03 07:05:02;;;;;;;4.55;1.90;;;15.90;91.60;;;;;;4997097;28;20540;-43
2022/06/03 07:07:40;;;;;;;3.42;1.58;;;16.00;91.80;;;;;;5009536;28;20049;-44
2022/06/03 07:10:42;;;;;;;4.18;1.60;;;16.10;91.10;;;;;;5010698;28;20038;-43
2022/06/03 07:13:26;;;;;;;5.32;1.73;;;16.20;90.90;;;;;;4926756;28;20089;-42
2022/06/03 07:16:15;;;;;;;2.92;1.48;;;16.30;90.80;;;;;;5008888;28;20506;-43
2022/06/03 07:22:18;;;;;;;3.25;1.70;;;16.50;89.70;;;;;;5004931;28;20056;-47
2022/06/03 07:25:05;;;;;;;1.88;1.05;;;16.60;89.30;;;;;;5005204;28;20057;-46
2022/06/03 07:27:42;;;;;;;5.13;1.80;;;16.70;88.30;;;;;;5009333;28;20067;-45
2022/06/03 07:30:10;;;;;;;3.78;1.65;;;16.90;89.40;;;;;;5007449;28;20487;-43
2022/06/03 07:32:47;;;;;;;4.07;1.42;;;17.00;87.60;;;;;;5000892;28;20038;-44
2022/06/03 07:35:32;;;;;;;2.85;1.77;;;17.00;86.20;;;;;;5005399;28;20523;-43
2022/06/03 07:38:04;;;;;;;5.45;1.58;;;17.10;85.20;;;;;;4992719;28;20054;-43
2022/06/03 07:40:45;;;;;;;3.92;1.33;;;17.20;85.10;;;;;;5009747;28;20085;-43
2022/06/03 07:43:24;;;;;;;3.17;1.52;;;17.30;84.90;;;;;;5011603;28;20629;-43
2022/06/03 07:46:06;;;;;;;4.38;2.00;;;17.40;84.30;;;;;;5008545;28;20436;-44
2022/06/03 07:48:33;;;;;;;4.03;2.00;;;17.50;82.10;;;;;;5011787;28;20041;-46
2022/06/03 07:51:04;;;;;;;4.82;1.58;;;17.50;81.30;;;;;;5003798;28;20116;-47
2022/06/03 07:53:42;;;;;;;4.38;1.75;;;17.60;81.40;;;;;;5009570;28;20503;-43
2022/06/03 07:56:07;;;;;;;3.28;1.73;;;17.60;80.20;;;;;;5009565;28;20049;-43
2022/06/03 07:58:40;;;;;;;4.30;1.90;;;17.70;80.80;;;;;;5004620;28;20038;-44
2022/06/03 08:01:27;;;;;;;4.00;2.03;;;17.80;80.10;;;;;;4995302;28;20345;-45
2022/06/03 08:03:53;;;;;;;3.42;1.80;;;17.90;78.30;;;;;;5009730;28;20117;-42
2022/06/03 08:06:30;;;;;;;5.18;2.55;;;17.90;78.00;;;;;;5009985;28;20126;-43
2022/06/03 08:11:43;;;;;;;2.80;1.75;;;18.10;76.70;;;;;;5006252;28;20562;-46
2022/06/03 08:14:09;;;;;;;3.22;1.80;;;18.20;76.10;;;;;;4997532;28;20073;-45
2022/06/03 08:16:41;;;;;;;7.38;2.53;;;18.20;75.00;;;;;;5007064;28;20081;-45
2022/06/03 08:19:08;;;;;;;3.55;1.70;;;18.30;74.00;;;;;;5006908;28;20041;-43
2022/06/03 08:21:46;;;;;;;4.40;1.83;;;18.40;73.60;;;;;;5006056;28;20396;-50
2022/06/03 08:24:20;;;;;;;4.07;1.75;;;18.40;72.90;;;;;;5003975;28;20077;-44
2022/06/03 08:26:52;;;;;;;4.07;2.00;;;18.50;71.40;;;;;;5009073;28;20117;-49
2022/06/03 08:29:20;;;;;;;3.05;1.73;;;18.60;73.00;;;;;;5006896;28;20435;-43
2022/06/03 08:31:48;;;;;;;5.35;1.80;;;18.70;72.40;;;;;;5023514;28;20129;-45
2022/06/03 08:34:36;;;;;;;4.85;1.80;;;18.80;71.90;;;;;;5009876;28;20488;-43
2022/06/03 08:37:03;;;;;;;3.60;1.77;;;19.00;71.10;;;;;;5018464;28;20080;-46
2022/06/03 08:39:32;;;;;;;3.40;1.77;;;19.00;70.20;;;;;;5008679;28;20034;-48
2022/06/03 08:42:39;;;;;;;4.55;1.77;;;19.10;69.80;;;;;;5005802;28;20050;-43
2022/06/03 08:45:20;;;;;;;4.18;1.90;;;19.20;67.10;;;;;;4971204;28;20136;-42
2022/06/03 08:47:58;;;;;;;4.57;2.17;;;19.20;67.90;;;;;;5001768;28;20176;-47
2022/06/03 08:50:27;;;;;;;4.53;2.05;;;19.30;66.20;;;;;;5009898;28;20068;-47
2022/06/03 08:53:21;;;;;;;4.25;1.98;;;19.30;67.20;;;;;;5024402;28;20129;-42
2022/06/03 08:55:49;;;;;;;3.90;1.48;;;19.50;66.30;;;;;;5009165;28;20054;-46
2022/06/03 08:58:22;;;;;;;3.85;1.55;;;19.60;66.80;;;;;;5009834;28;20061;-45
2022/06/03 09:01:29;;;;;;;4.80;1.83;;;19.70;67.00;;;;;;5008623;28;20057;-47
2022/06/03 09:03:55;;;;;;;4.93;1.50;;;19.80;66.10;;;;;;5004893;28;20052;-45
2022/06/03 09:06:31;;;;;;;3.33;1.80;;;19.90;66.00;;;;;;5006669;28;20034;-43
2022/06/03 09:09:04;;;;;;;4.28;2.05;;;20.00;65.10;;;;;;5009221;28;20038;-43
2022/06/03 09:11:37;;;;;;;4.50;2.00;;;20.00;64.00;;;;;;4992604;28;20085;-49
2022/06/03 09:14:09;;;;;;;4.20;1.77;;;20.10;64.10;;;;;;5006892;28;20046;-43
2022/06/03 09:16:37;;;;;;;6.30;1.92;;;20.20;62.90;;;;;;5006198;28;20073;-45
2022/06/03 09:19:26;;;;;;;2.22;1.40;;;20.20;62.40;;;;;;5005301;28;20395;-44
2022/06/03 09:21:54;;;;;;;3.05;1.48;;;20.40;62.80;;;;;;5006352;28;20045;-44
2022/06/03 09:24:32;;;;;;;3.08;1.50;;;20.50;62.20;;;;;;5007324;28;20128;-46
2022/06/03 09:27:01;;;;;;;3.92;1.70;;;20.60;60.60;;;;;;5010542;28;20052;-42
2022/06/03 09:29:28;;;;;;;3.58;1.38;;;20.70;60.80;;;;;;5010502;28;20514;-45
2022/06/03 09:32:00;;;;;;;3.35;1.60;;;20.70;60.10;;;;;;5001178;28;20563;-45
2022/06/03 09:34:48;;;;;;;3.63;1.63;;;20.80;59.80;;;;;;5006818;28;20068;-44
2022/06/03 09:37:27;;;;;;;4.53;1.65;;;20.80;57.40;;;;;;5010245;28;20053;-46
2022/06/03 09:39:54;;;;;;;2.88;1.38;;;20.90;58.90;;;;;;5011944;28;20561;-45
2022/06/03 09:42:21;;;;;;;3.55;1.80;;;21.00;58.20;;;;;;5007299;28;20041;-48
2022/06/03 09:44:49;;;;;;;3.28;1.60;;;21.00;57.80;;;;;;5009190;28;20487;-45
2022/06/03 09:47:19;;;;;;;3.70;1.48;;;21.00;57.40;;;;;;5011212;28;20038;-47
2022/06/03 09:49:48;;;;;;;1.73;1.30;;;21.10;56.90;;;;;;5005529;28;20507;-48
2022/06/03 09:52:25;;;;;;;3.10;1.30;;;21.20;56.10;;;;;;5010841;28;20519;-44
2022/06/03 09:54:52;;;;;;;2.85;1.42;;;21.30;55.90;;;;;;5008077;28;20056;-47
2022/06/03 09:57:24;;;;;;;2.00;1.10;;;21.40;55.50;;;;;;5010044;28;20065;-49
2022/06/03 09:59:53;;;;;;;;;;;21.40;54.10;;;;;;5006127;28;20053;-44
2022/06/03 10:02:19;;;;;;;2.33;1.10;;;21.50;51.90;;;;;;5007031;28;19943;-47
2022/06/03 10:04:45;;;;;;;3.10;1.20;;;21.50;53.90;;;;;;5020936;28;20136;-48
2022/06/03 10:07:11;;;;;;;5.05;1.77;;;21.60;53.40;;;;;;5012338;28;20446;-46
2022/06/03 10:12:49;;;;;;;3.88;1.70;;;21.80;54.00;;;;;;5006202;28;20495;-48
2022/06/03 10:15:39;;;;;;;2.40;1.45;;;21.90;53.60;;;;;;5006624;28;20038;-44
2022/06/03 10:18:32;;;;;;;4.78;2.00;;;21.90;52.00;;;;;;5011119;28;21330;-43
2022/06/03 10:21:08;;;;;;;3.75;1.38;;;22.00;51.90;;;;;;5010322;28;20468;-48
2022/06/03 10:23:41;;;;;;;3.20;1.50;;;22.10;52.70;;;;;;5010588;28;20037;-43
2022/06/03 10:26:07;;;;;;;3.88;1.48;;;22.20;52.80;;;;;;5003672;28;20118;-44
2022/06/03 10:28:38;;;;;;;2.63;1.33;;;22.30;52.40;;;;;;5006110;28;20034;-49
2022/06/03 10:31:07;;;;;;;5.00;1.30;;;22.30;51.70;;;;;;5004816;28;20370;-47
2022/06/03 10:33:34;;;;;;;3.75;1.65;;;22.40;51.70;;;;;;5008949;28;20038;-47
2022/06/03 10:36:02;;;;;;;3.28;1.40;;;22.50;51.80;;;;;;5008289;28;20038;-47
2022/06/03 10:38:34;;;;;;;4.65;1.33;;;22.60;51.40;;;;;;5001078;28;20065;-42
2022/06/03 10:41:09;;;;;;;3.70;1.27;;;22.70;50.50;;;;;;5005596;28;20092;-47
2022/06/03 10:43:36;;;;;;;2.53;1.23;;;22.80;49.50;;;;;;5008282;28;20529;-44
2022/06/03 10:46:15;;;;;;;2.13;1.20;;;22.80;50.10;;;;;;5021731;28;20172;-47
2022/06/03 10:48:42;;;;;;;2.50;1.23;;;22.90;49.50;;;;;;5009046;28;20332;-43
2022/06/03 11:02:43;;;;;;;2.13;1.10;;;23.30;47.60;;;;;;4985324;28;20065;-45
2022/06/03 11:05:22;;;;;;;2.13;1.20;;;23.30;47.40;;;;;;5010720;28;20359;-47
2022/06/03 11:08:05;;;;;;;1.80;1.00;;;23.30;46.60;;;;;;5005572;28;20403;-46
2022/06/03 11:10:50;;;;;;;2.65;1.10;;;23.40;45.90;;;;;;5002289;28;20376;-47
2022/06/03 11:13:32;;;;;;;2.13;1.17;;;23.50;45.70;;;;;;5008830;28;20388;-49
2022/06/03 11:16:22;;;;;;;1.95;1.10;;;23.50;45.50;;;;;;5009213;28;20053;-45
2022/06/03 11:18:48;;;;;;;2.15;0.80;;;23.60;45.40;;;;;;5010878;28;20066;-46
2022/06/03 11:21:22;;;;;;;2.58;0.88;;;23.70;45.80;;;;;;5005689;28;20057;-46
2022/06/03 11:23:49;;;;;;;2.28;1.10;;;23.90;45.50;;;;;;5007811;28;20477;-44
2022/06/03 11:26:15;;;;;;;2.30;1.20;;;24.00;45.20;;;;;;5007015;28;20042;-45
2022/06/03 11:28:52;;;;;;;2.30;1.10;;;24.00;45.20;;;;;;5007933;28;20569;-46
2022/06/03 11:31:37;;;;;;;2.22;0.88;;;24.10;44.50;;;;;;5002311;28;20565;-47
2022/06/03 11:34:11;;;;;;;2.35;1.27;;;24.10;44.40;;;;;;5007803;28;20067;-45
2022/06/03 11:36:45;;;;;;;1.58;1.00;;;24.10;44.10;;;;;;5008978;28;20053;-48
2022/06/03 11:39:29;;;;;;;2.42;1.10;;;24.10;44.60;;;;;;5006572;28;20365;-47
2022/06/03 11:42:03;;;;;;;3.13;0.93;;;24.20;44.30;;;;;;5003377;28;20504;-48
2022/06/03 11:44:46;;;;;;;1.88;0.98;;;24.20;44.10;;;;;;5009165;28;20041;-46
2022/06/03 11:47:16;;;;;;;1.75;0.95;;;24.30;43.60;;;;;;5005779;28;20143;-47
2022/06/03 11:49:42;;;;;;;5.57;1.10;;;24.30;44.00;;;;;;5006746;28;20041;-47
2022/06/03 11:52:08;;;;;;;1.63;0.90;;;24.20;44.00;;;;;;5006551;28;20387;-48
2022/06/03 11:54:34;;;;;;;3.38;1.10;;;24.20;44.40;;;;;;5006012;28;20049;-46
2022/06/03 11:57:02;;;;;;;4.78;1.13;;;24.20;44.30;;;;;;5007245;28;20048;-47
2022/06/03 11:59:47;;;;;;;2.88;0.98;;;24.30;43.90;;;;;;5009003;28;20124;-48
2022/06/03 12:02:16;;;;;;;1.52;0.80;;;24.30;42.70;;;;;;5007447;28;20045;-43
2022/06/03 12:05:03;;;;;;;1.77;0.90;;;24.40;42.90;;;;;;5007974;28;20116;-48
2022/06/03 12:07:41;;;;;;;1.40;0.80;;;24.50;42.70;;;;;;5008214;28;20085;-48
2022/06/03 12:10:43;;;;;;;2.17;0.80;;;24.60;43.00;;;;;;5024666;28;20045;-44
2022/06/03 12:13:26;;;;;;;3.85;0.85;;;24.70;42.00;;;;;;4962896;28;20497;-47
2022/06/03 12:15:58;;;;;;;5.55;1.13;;;24.90;42.50;;;;;;5008941;28;20065;-45
2022/06/03 12:18:36;;;;;;;2.55;1.30;;;24.90;42.30;;;;;;5003761;28;20042;-48
2022/06/03 12:21:32;;;;;;;3.20;1.15;;;24.80;41.80;;;;;;5005596;28;20041;-46
2022/06/03 12:24:26;;;;;;;4.90;1.08;;;25.00;42.30;;;;;;4978696;28;20065;-46
2022/06/03 12:26:53;;;;;;;1.77;1.10;;;25.20;41.30;;;;;;5007745;28;20178;-48
2022/06/03 12:29:57;;;;;;;6.05;1.10;;;25.30;41.90;;;;;;5007274;28;20471;-44
2022/06/03 12:32:28;;;;;;;1.90;0.80;;;25.40;40.90;;;;;;4955654;28;20136;-43
2022/06/03 12:35:32;;;;;;;4.17;1.23;;;25.50;40.90;;;;;;5002776;28;20519;-45
2022/06/03 12:38:20;;;;;;;3.17;1.30;;;25.50;39.40;;;;;;4981280;28;20327;-48
2022/06/03 12:40:51;;;;;;;2.83;1.20;;;25.40;40.80;;;;;;5006082;28;20108;-43
2022/06/03 12:43:29;;;;;;;4.20;1.20;;;25.40;41.20;;;;;;5005258;28;20045;-45
2022/06/03 12:46:07;;;;;;;2.65;1.00;;;25.40;40.80;;;;;;5005082;28;20080;-42
2022/06/03 12:48:45;;;;;;;2.75;0.90;;;25.60;41.50;;;;;;5008440;28;20090;-46
2022/06/03 12:51:22;;;;;;;1.40;0.90;;;25.80;40.80;;;;;;5006567;28;20041;-44
2022/06/03 12:53:50;;;;;;;2.05;1.08;;;26.00;41.00;;;;;;5004632;28;20116;-46
2022/06/03 12:56:37;;;;;;;2.10;1.05;;;26.00;40.50;;;;;;5010066;28;20030;-47
2022/06/03 12:59:17;;;;;;;1.95;1.30;;;26.10;39.30;;;;;;5003892;28;20046;-45
2022/06/03 13:02:15;;;;;;;2.42;1.20;;;26.10;39.50;;;;;;5007439;28;20042;-44
2022/06/03 13:05:09;;;;;;;3.15;1.27;;;26.10;38.50;;;;;;5004610;28;20049;-47
2022/06/03 13:07:56;;;;;;;2.40;1.38;;;25.60;38.10;;;;;;4996465;28;20141;-50
2022/06/03 13:10:26;;;;;;;3.08;1.48;;;25.50;40.10;;;;;;4999413;28;20054;-49
2022/06/03 13:12:55;;;;;;;2.03;1.02;;;25.50;39.80;;;;;;5006042;28;20054;-50
2022/06/03 13:15:20;;;;;;;1.77;1.13;;;25.40;40.00;;;;;;5007420;28;20038;-47
2022/06/03 13:18:12;;;;;;;1.50;1.05;;;25.60;39.60;;;;;;5000235;28;20042;-44
2022/06/03 13:20:43;;;;;;;2.40;1.10;;;25.80;38.70;;;;;;5003677;28;20065;-46
2022/06/03 13:23:32;;;;;;;2.22;1.20;;;26.10;39.20;;;;;;5008033;28;20513;-45
2022/06/03 13:26:19;;;;;;;1.70;1.25;;;26.30;38.20;;;;;;5000770;28;20046;-45
2022/06/03 13:28:47;;;;;;;3.45;1.17;;;26.50;37.60;;;;;;5001476;28;20539;-47
2022/06/03 13:31:25;;;;;;;3.35;0.95;;;26.60;38.00;;;;;;5005761;28;20045;-47
2022/06/03 13:34:08;;;;;;;2.13;1.20;;;26.80;37.60;;;;;;5000881;28;20128;-42
2022/06/03 13:36:49;;;;;;;3.75;1.33;;;26.80;37.20;;;;;;5003617;28;20050;-45
2022/06/03 13:39:24;;;;;;;3.08;1.20;;;26.90;36.50;;;;;;4999806;28;20104;-41
2022/06/03 13:44:42;;;;;;;2.22;1.20;;;27.20;37.40;;;;;;5005985;28;20059;-45
2022/06/03 13:47:20;;;;;;;1.50;1.40;;;27.40;36.30;;;;;;5001594;28;20499;-41
2022/06/03 13:50:03;;;;;;;1.80;1.42;;;27.50;35.40;;;;;;5006553;28;20045;-42
2022/06/03 13:52:32;;;;;;;2.47;1.35;;;27.60;35.10;;;;;;5007576;28;20065;-44
2022/06/03 13:55:13;;;;;;;1.65;1.20;;;27.70;35.40;;;;;;5002613;28;20056;-45
2022/06/03 13:57:42;;;;;;;1.93;1.10;;;28.00;34.50;;;;;;5003101;28;20045;-44
2022/06/03 14:00:30;;;;;;;1.15;0.70;;;28.00;34.50;;;;;;5009662;28;20068;-45
2022/06/03 14:03:10;;;;;;;1.90;1.08;;;28.20;34.00;;;;;;5006916;28;20454;-44
2022/06/03 14:05:43;;;;;;;1.77;0.90;;;28.50;35.20;;;;;;5005477;28;20034;-46
2022/06/03 14:08:25;;;;;;;2.15;0.85;;;28.60;33.70;;;;;;5005304;28;20041;-48
2022/06/03 14:11:03;;;;;;;1.60;0.98;;;28.60;32.30;;;;;;5007831;28;20502;-46
2022/06/03 14:14:00;;;;;;;1.25;0.80;;;28.80;32.80;;;;;;5004299;28;20089;-42
2022/06/03 14:16:55;;;;;;;1.17;0.90;;;29.10;31.70;;;;;;5006577;28;20502;-49
2022/06/03 14:19:38;;;;;;;1.60;0.70;;;29.60;30.90;;;;;;5007427;28;20057;-52
2022/06/03 14:22:24;;;;;;;4.22;0.80;;;30.00;31.20;;;;;;5008179;28;20089;-48
2022/06/03 14:25:02;;;;;;;2.97;0.90;;;30.50;30.20;;;;;;5006152;28;20117;-45
2022/06/03 14:27:37;;;;;;;2.83;0.98;;;30.90;29.70;;;;;;5006119;28;20037;-46